createdAt,value
2024-03-07T00:00:32.208Z,25.52
2024-03-07T00:01:32.320Z,25.52
2024-03-07T00:02:32.442Z,25.52
2024-03-07T00:03:32.507Z,25.52
2024-03-07T00:04:32.571Z,25.52
2024-03-07T00:05:32.656Z,25.52
2024-03-07T00:06:32.688Z,25.52
2024-03-07T00:07:32.801Z,25.52
2024-03-07T00:08:32.930Z,25.52
2024-03-07T00:09:32.954Z,25.52
2024-03-07T00:10:32.985Z,25.52
2024-03-07T00:11:33.194Z,25.52
2024-03-07T00:12:33.205Z,25.52
2024-03-07T00:13:33.284Z,25.52
2024-03-07T00:14:33.393Z,25.52
2024-03-07T00:15:33.427Z,25.52
2024-03-07T00:16:33.510Z,25.52
2024-03-07T00:17:33.610Z,25.52
2024-03-07T00:18:33.711Z,25.52
2024-03-07T00:19:33.731Z,25.53
2024-03-07T00:20:33.896Z,25.53
2024-03-07T00:21:33.894Z,25.53
2024-03-07T00:22:34.011Z,25.53
2024-03-07T00:23:34.146Z,25.53
2024-03-07T00:24:34.177Z,25.54
2024-03-07T00:25:34.248Z,25.55
2024-03-07T00:26:34.349Z,25.56
2024-03-07T00:27:34.433Z,25.56
2024-03-07T00:28:34.511Z,25.57
2024-03-07T00:29:34.612Z,25.58
2024-03-07T00:30:34.652Z,25.60
2024-03-07T00:31:34.782Z,25.61
2024-03-07T00:32:34.921Z,25.62
2024-03-07T00:33:51.164Z,25.63
2024-03-07T00:34:35.998Z,25.64
2024-03-07T00:35:35.008Z,25.64
2024-03-07T00:36:35.020Z,25.65
2024-03-07T00:37:35.008Z,25.67
2024-03-07T00:38:35.035Z,25.68
2024-03-07T00:39:34.988Z,25.68
2024-03-07T00:40:34.988Z,25.70
2024-03-07T00:41:35.045Z,25.71
2024-03-07T00:42:35.133Z,25.73
2024-03-07T00:43:35.183Z,25.74
2024-03-07T00:44:35.247Z,25.75
2024-03-07T00:45:35.363Z,25.77
2024-03-07T00:46:35.475Z,25.79
2024-03-07T00:47:35.675Z,25.79
2024-03-07T00:48:35.661Z,25.80
2024-03-07T00:49:35.767Z,25.81
2024-03-07T00:50:35.952Z,25.82
2024-03-07T00:52:36.077Z,25.85
2024-03-07T00:53:36.238Z,25.85
2024-03-07T00:54:36.270Z,25.86
2024-03-07T00:55:36.374Z,25.87
2024-03-07T00:56:36.499Z,25.88
2024-03-07T00:57:36.566Z,25.89
2024-03-07T00:58:36.661Z,25.89
2024-03-07T00:59:36.791Z,25.90
2024-03-07T01:00:36.867Z,25.92
2024-03-07T01:01:36.952Z,25.92
2024-03-07T01:02:37.063Z,25.94
2024-03-07T01:03:37.124Z,25.94
2024-03-07T01:04:37.215Z,25.94
2024-03-07T01:05:37.342Z,25.95
2024-03-07T01:06:37.398Z,25.96
2024-03-07T01:07:37.493Z,25.96
2024-03-07T01:08:37.614Z,25.97
2024-03-07T01:09:37.653Z,25.98
2024-03-07T01:10:37.757Z,25.98
2024-03-07T01:11:37.929Z,25.99
2024-03-07T01:12:37.883Z,25.98
2024-03-07T01:13:38.065Z,25.99
2024-03-07T01:14:38.106Z,26.00
2024-03-07T01:15:38.186Z,26.01
2024-03-07T01:16:38.244Z,26.01
2024-03-07T01:17:38.453Z,26.02
2024-03-07T01:18:38.496Z,26.03
2024-03-07T01:19:38.521Z,26.03
2024-03-07T01:20:38.663Z,26.03
2024-03-07T01:21:39.255Z,26.04
2024-03-07T01:22:38.737Z,26.05
2024-03-07T01:23:38.767Z,26.05
2024-03-07T01:24:38.756Z,26.05
2024-03-07T01:25:38.821Z,26.05
2024-03-07T01:26:38.871Z,26.06
2024-03-07T01:27:38.898Z,26.06
2024-03-07T01:28:38.970Z,26.07
2024-03-07T01:29:38.998Z,26.07
2024-03-07T01:30:38.972Z,26.08
2024-03-07T01:31:39.028Z,26.08
2024-03-07T01:32:39.134Z,26.09
2024-03-07T01:33:39.177Z,26.09
2024-03-07T01:34:39.162Z,26.10
2024-03-07T01:35:39.212Z,26.10
2024-03-07T01:36:39.320Z,26.10
2024-03-07T01:37:39.270Z,26.10
2024-03-07T01:38:39.372Z,26.11
2024-03-07T01:39:39.373Z,26.11
2024-03-07T01:40:39.392Z,26.12
2024-03-07T01:41:39.498Z,26.12
2024-03-07T01:42:39.520Z,26.12
2024-03-07T01:43:39.587Z,26.13
2024-03-07T01:44:40.565Z,26.13
2024-03-07T01:45:39.640Z,26.13
2024-03-07T01:46:39.725Z,26.13
2024-03-07T01:48:08.897Z,26.13
2024-03-07T01:49:08.830Z,26.13
2024-03-07T01:50:08.825Z,26.13
2024-03-07T01:51:08.824Z,26.13
2024-03-07T01:52:08.837Z,26.13
2024-03-07T01:53:08.806Z,26.13
2024-03-07T01:54:08.808Z,26.13
2024-03-07T01:55:08.802Z,26.14
2024-03-07T01:56:08.827Z,26.14
2024-03-07T01:57:08.819Z,26.14
2024-03-07T01:58:08.836Z,26.14
2024-03-07T01:59:08.954Z,26.14
2024-03-07T02:00:08.906Z,26.14
2024-03-07T02:01:08.835Z,26.14
2024-03-07T02:02:08.856Z,26.15
2024-03-07T02:03:08.826Z,26.14
2024-03-07T02:04:08.822Z,26.15
2024-03-07T02:05:08.858Z,26.15
2024-03-07T02:06:08.816Z,26.14
2024-03-07T02:07:08.834Z,26.14
2024-03-07T02:08:08.809Z,26.14
2024-03-07T02:09:08.807Z,26.14
2024-03-07T02:10:08.856Z,26.15
2024-03-07T02:11:08.853Z,26.14
2024-03-07T02:12:08.885Z,26.14
2024-03-07T02:13:08.831Z,26.15
2024-03-07T02:14:08.878Z,26.14
2024-03-07T02:15:08.825Z,26.15
2024-03-07T02:16:08.830Z,26.14
2024-03-07T02:17:08.848Z,26.14
2024-03-07T02:18:08.893Z,26.14
2024-03-07T02:19:08.845Z,26.14
2024-03-07T02:20:08.888Z,26.14
2024-03-07T02:21:08.871Z,26.14
2024-03-07T02:22:08.842Z,26.14
2024-03-07T02:23:08.865Z,26.13
2024-03-07T02:24:08.854Z,26.13
2024-03-07T02:25:08.856Z,26.13
2024-03-07T02:26:08.867Z,26.13
2024-03-07T02:27:08.884Z,26.13
2024-03-07T02:28:08.903Z,26.13
2024-03-07T02:29:08.972Z,26.12
2024-03-07T02:30:09.092Z,26.12
2024-03-07T02:31:09.179Z,26.12
2024-03-07T02:32:09.218Z,26.12
2024-03-07T02:33:09.504Z,26.12
2024-03-07T02:34:09.360Z,26.11
2024-03-07T02:35:09.467Z,26.11
2024-03-07T02:36:09.546Z,26.11
2024-03-07T02:37:09.662Z,26.11
2024-03-07T02:38:09.920Z,26.11
2024-03-07T02:39:09.808Z,26.10
2024-03-07T02:40:09.885Z,26.10
2024-03-07T02:41:09.923Z,26.09
2024-03-07T02:42:10.024Z,26.09
2024-03-07T02:43:10.118Z,26.09
2024-03-07T02:44:10.250Z,26.08
2024-03-07T02:45:10.273Z,26.08
2024-03-07T02:46:10.365Z,26.08
2024-03-07T02:47:10.496Z,26.07
2024-03-07T02:48:11.247Z,26.07
2024-03-07T02:49:10.739Z,26.07
2024-03-07T02:50:10.744Z,26.07
2024-03-07T02:51:10.761Z,26.07
2024-03-07T02:52:10.870Z,26.05
2024-03-07T02:53:10.985Z,26.05
2024-03-07T02:54:11.087Z,26.05
2024-03-07T02:55:11.131Z,26.04
2024-03-07T02:56:11.274Z,26.05
2024-03-07T02:57:11.329Z,26.04
2024-03-07T02:58:11.427Z,26.04
2024-03-07T02:59:11.484Z,26.03
2024-03-07T03:00:11.561Z,26.03
2024-03-07T03:01:11.724Z,26.03
2024-03-07T03:02:11.815Z,26.02
2024-03-07T03:03:11.855Z,26.03
2024-03-07T03:04:11.967Z,26.02
2024-03-07T03:05:12.086Z,26.02
2024-03-07T03:06:12.133Z,26.01
2024-03-07T03:07:12.205Z,26.02
2024-03-07T03:08:12.365Z,26.02
2024-03-07T03:09:12.399Z,26.01
2024-03-07T03:10:12.524Z,26.02
2024-03-07T03:11:12.634Z,26.01
2024-03-07T03:12:12.720Z,26.00
2024-03-07T03:13:12.765Z,26.00
2024-03-07T03:14:12.927Z,26.00
2024-03-07T03:15:12.944Z,26.00
2024-03-07T03:16:13.061Z,26.00
2024-03-07T03:17:13.141Z,25.99
2024-03-07T03:18:13.344Z,26.00
2024-03-07T03:19:13.353Z,25.99
2024-03-07T03:20:13.482Z,25.99
2024-03-07T03:21:13.532Z,25.99
2024-03-07T03:22:13.647Z,25.99
2024-03-07T03:23:20.016Z,25.98
2024-03-07T03:24:14.752Z,25.97
2024-03-07T03:25:13.768Z,25.97
2024-03-07T03:26:13.726Z,25.97
2024-03-07T03:27:13.762Z,25.97
2024-03-07T03:28:13.748Z,25.97
2024-03-07T03:29:13.824Z,25.97
2024-03-07T03:30:13.774Z,25.97
2024-03-07T03:31:13.787Z,25.97
2024-03-07T03:32:13.824Z,25.96
2024-03-07T03:33:13.843Z,25.96
2024-03-07T03:34:13.827Z,25.96
2024-03-07T03:35:13.914Z,25.96
2024-03-07T03:36:13.985Z,25.96
2024-03-07T03:37:14.069Z,25.95
2024-03-07T03:38:14.229Z,25.95
2024-03-07T03:39:14.537Z,25.95
2024-03-07T03:40:14.316Z,25.95
2024-03-07T03:41:14.367Z,25.94
2024-03-07T03:42:14.392Z,25.94
2024-03-07T03:43:14.446Z,25.94
2024-03-07T03:44:14.518Z,25.94
2024-03-07T03:45:15.509Z,25.94
2024-03-07T03:46:14.565Z,25.94
2024-03-07T03:47:14.623Z,25.93
2024-03-07T03:48:14.904Z,25.93
2024-03-07T03:49:14.687Z,25.93
2024-03-07T03:50:14.740Z,25.93
2024-03-07T03:51:14.752Z,25.93
2024-03-07T03:52:14.848Z,25.92
2024-03-07T03:53:14.961Z,25.92
2024-03-07T03:54:15.019Z,25.91
2024-03-07T03:55:15.122Z,25.93
2024-03-07T03:56:15.249Z,25.91
2024-03-07T03:57:15.330Z,25.91
2024-03-07T03:58:15.430Z,25.91
2024-03-07T03:59:15.644Z,25.91
2024-03-07T04:00:15.686Z,25.90
2024-03-07T04:01:16.016Z,25.90
2024-03-07T04:02:15.879Z,25.89
2024-03-07T04:03:15.957Z,25.89
2024-03-07T04:04:16.039Z,25.89
2024-03-07T04:05:16.160Z,25.89
2024-03-07T04:06:16.232Z,25.89
2024-03-07T04:07:16.310Z,25.88
2024-03-07T04:08:16.505Z,25.88
2024-03-07T04:09:16.514Z,25.88
2024-03-07T04:10:16.614Z,25.88
2024-03-07T04:11:16.769Z,25.88
2024-03-07T04:12:16.876Z,25.87
2024-03-07T04:13:16.895Z,25.86
2024-03-07T04:14:17.047Z,25.87
2024-03-07T04:15:17.092Z,25.87
2024-03-07T04:16:17.195Z,25.86
2024-03-07T04:17:17.346Z,25.86
2024-03-07T04:18:17.578Z,25.86
2024-03-07T04:19:17.534Z,25.85
2024-03-07T04:20:17.644Z,25.86
2024-03-07T04:21:17.735Z,25.85
2024-03-07T04:22:17.818Z,25.85
2024-03-07T04:23:17.952Z,25.85
2024-03-07T04:24:18.021Z,25.85
2024-03-07T04:25:18.148Z,25.84
2024-03-07T04:26:18.244Z,25.85
2024-03-07T04:27:18.346Z,25.84
2024-03-07T04:28:18.422Z,25.84
2024-03-07T04:29:18.562Z,25.83
2024-03-07T04:30:25.796Z,25.81
2024-03-07T04:31:33.509Z,25.80
2024-03-07T04:32:33.586Z,25.81
2024-03-07T04:33:33.678Z,25.81
2024-03-07T04:34:33.507Z,25.81
2024-03-07T04:35:33.529Z,25.81
2024-03-07T04:36:33.519Z,25.80
2024-03-07T04:37:33.532Z,25.80
2024-03-07T04:38:33.576Z,25.80
2024-03-07T04:39:33.563Z,25.81
2024-03-07T04:40:33.505Z,25.81
2024-03-07T04:41:33.617Z,25.81
2024-03-07T04:42:33.555Z,25.81
2024-03-07T04:43:33.542Z,25.81
2024-03-07T04:44:33.610Z,25.81
2024-03-07T04:45:33.557Z,25.81
2024-03-07T04:46:33.552Z,25.82
2024-03-07T04:47:33.674Z,25.81
2024-03-07T04:48:33.669Z,25.81
2024-03-07T04:49:33.556Z,25.82
2024-03-07T04:50:33.618Z,25.83
2024-03-07T04:51:33.556Z,25.83
2024-03-07T04:52:33.564Z,25.82
2024-03-07T04:53:33.586Z,25.83
2024-03-07T04:54:33.556Z,25.83
2024-03-07T04:55:33.543Z,25.83
2024-03-07T04:56:33.596Z,25.83
2024-03-07T04:57:33.544Z,25.84
2024-03-07T04:58:33.550Z,25.84
2024-03-07T04:59:33.634Z,25.84
2024-03-07T05:00:33.769Z,25.85
2024-03-07T05:01:33.827Z,25.84
2024-03-07T05:02:33.921Z,25.85
2024-03-07T05:03:34.031Z,25.85
2024-03-07T05:04:34.139Z,25.86
2024-03-07T05:05:34.320Z,25.86
2024-03-07T05:06:34.313Z,25.86
2024-03-07T05:07:34.423Z,25.87
2024-03-07T05:08:34.629Z,25.87
2024-03-07T05:09:34.607Z,25.87
2024-03-07T05:10:34.729Z,25.87
2024-03-07T05:11:34.873Z,25.87
2024-03-07T05:12:34.912Z,25.87
2024-03-07T05:13:35.047Z,25.88
2024-03-07T05:14:35.166Z,25.87
2024-03-07T05:15:37.087Z,25.88
2024-03-07T05:16:35.243Z,25.88
2024-03-07T05:17:35.289Z,25.88
2024-03-07T05:18:35.268Z,25.88
2024-03-07T05:19:35.250Z,25.89
2024-03-07T05:20:35.253Z,25.89
2024-03-07T05:21:35.254Z,25.89
2024-03-07T05:22:35.215Z,25.89
2024-03-07T05:23:35.313Z,25.89
2024-03-07T05:24:35.558Z,25.89
2024-03-07T05:25:35.262Z,25.89
2024-03-07T05:26:35.300Z,25.90
2024-03-07T05:27:35.240Z,25.89
2024-03-07T05:28:35.260Z,25.90
2024-03-07T05:29:35.304Z,25.90
2024-03-07T05:30:35.249Z,25.90
2024-03-07T05:31:35.272Z,25.90
2024-03-07T05:32:35.334Z,25.90
2024-03-07T05:33:35.282Z,25.90
2024-03-07T05:34:35.251Z,25.90
2024-03-07T05:35:35.321Z,25.90
2024-03-07T05:36:35.253Z,25.91
2024-03-07T05:37:35.291Z,25.91
2024-03-07T05:38:35.317Z,25.91
2024-03-07T05:39:35.283Z,25.91
2024-03-07T05:40:35.289Z,25.92
2024-03-07T05:41:35.310Z,25.91
2024-03-07T05:42:35.250Z,25.92
2024-03-07T05:43:35.259Z,25.92
2024-03-07T05:44:35.405Z,25.91
2024-03-07T05:45:35.284Z,25.93
2024-03-07T05:46:35.288Z,25.92
2024-03-07T05:47:35.342Z,25.92
2024-03-07T05:48:35.327Z,25.93
2024-03-07T05:49:35.312Z,25.93
2024-03-07T05:50:35.323Z,25.93
2024-03-07T05:51:35.288Z,25.93
2024-03-07T05:52:35.392Z,25.92
2024-03-07T05:53:35.560Z,25.92
2024-03-07T05:54:35.609Z,25.92
2024-03-07T05:55:35.700Z,25.93
2024-03-07T05:56:35.852Z,25.93
2024-03-07T05:57:35.853Z,25.93
2024-03-07T05:58:35.957Z,25.94
2024-03-07T05:59:36.118Z,25.93
2024-03-07T06:00:58.760Z,25.94
2024-03-07T06:01:36.160Z,25.89
2024-03-07T06:02:36.206Z,25.91
2024-03-07T06:03:36.204Z,25.93
2024-03-07T06:04:36.160Z,25.93
2024-03-07T06:05:36.248Z,25.93
2024-03-07T06:06:36.166Z,25.93
2024-03-07T06:07:36.130Z,25.93
2024-03-07T06:08:36.175Z,25.93
2024-03-07T06:09:36.180Z,25.94
2024-03-07T06:10:36.280Z,25.94
2024-03-07T06:11:36.329Z,25.94
2024-03-07T06:12:36.246Z,25.94
2024-03-07T06:13:36.185Z,25.94
2024-03-07T06:14:36.274Z,25.94
2024-03-07T06:15:36.149Z,25.95
2024-03-07T06:16:36.177Z,25.94
2024-03-07T06:17:36.219Z,25.94
2024-03-07T06:18:36.239Z,25.94
2024-03-07T06:19:36.185Z,25.94
2024-03-07T06:20:36.262Z,25.94
2024-03-07T06:21:36.201Z,25.94
2024-03-07T06:22:36.210Z,25.94
2024-03-07T06:23:36.390Z,25.94
2024-03-07T06:24:36.407Z,25.95
2024-03-07T06:25:36.459Z,25.94
2024-03-07T06:26:36.696Z,25.94
2024-03-07T06:27:36.684Z,25.94
2024-03-07T06:28:36.755Z,25.94
2024-03-07T06:29:36.901Z,25.95
2024-03-07T06:30:36.952Z,25.94
2024-03-07T06:31:37.040Z,25.95
2024-03-07T06:32:37.234Z,25.94
2024-03-07T06:33:37.333Z,25.95
2024-03-07T06:34:37.687Z,25.95
2024-03-07T06:35:37.499Z,25.94
2024-03-07T06:36:37.571Z,25.94
2024-03-07T06:37:37.650Z,25.93
2024-03-07T06:38:37.829Z,25.93
2024-03-07T06:39:38.170Z,25.91
2024-03-07T06:40:37.944Z,25.90
2024-03-07T06:41:38.087Z,25.89
2024-03-07T06:42:38.151Z,25.85
2024-03-07T06:43:38.271Z,25.84
2024-03-07T06:44:38.735Z,25.84
2024-03-07T06:46:00.963Z,25.84
2024-03-07T06:46:38.469Z,25.80
2024-03-07T06:47:38.798Z,25.81
2024-03-07T06:48:38.565Z,25.81
2024-03-07T06:49:38.745Z,25.82
2024-03-07T06:50:39.214Z,25.82
2024-03-07T06:51:38.494Z,25.83
2024-03-07T06:52:40.115Z,25.84
2024-03-07T06:53:38.531Z,25.87
2024-03-07T06:54:39.665Z,25.88
2024-03-07T06:55:38.528Z,25.90
2024-03-07T06:56:38.525Z,25.91
2024-03-07T06:57:38.478Z,25.93
2024-03-07T06:58:38.470Z,25.94
2024-03-07T06:59:38.525Z,25.96
2024-03-07T07:00:39.351Z,25.97
2024-03-07T07:01:38.514Z,25.97
2024-03-07T07:02:38.584Z,25.98
2024-03-07T07:03:38.509Z,25.99
2024-03-07T07:04:38.532Z,26.00
2024-03-07T07:05:38.791Z,26.00
2024-03-07T07:06:38.640Z,26.01
2024-03-07T07:07:38.710Z,26.01
2024-03-07T07:08:38.835Z,26.03
2024-03-07T07:09:38.882Z,26.04
2024-03-07T07:10:39.238Z,26.06
2024-03-07T07:11:39.206Z,26.07
2024-03-07T07:12:39.114Z,26.08
2024-03-07T07:13:39.203Z,26.09
2024-03-07T07:14:39.310Z,26.08
2024-03-07T07:15:39.722Z,26.09
2024-03-07T07:16:39.380Z,26.10
2024-03-07T07:17:39.570Z,26.11
2024-03-07T07:18:39.778Z,26.12
2024-03-07T07:19:39.613Z,26.13
2024-03-07T07:20:39.722Z,26.14
2024-03-07T07:21:39.796Z,26.15
2024-03-07T07:22:39.874Z,26.16
2024-03-07T07:23:40.008Z,26.16
2024-03-07T07:24:39.979Z,26.17
2024-03-07T07:25:40.097Z,26.18
2024-03-07T07:26:40.173Z,26.18
2024-03-07T07:27:40.224Z,26.19
2024-03-07T07:28:40.318Z,26.19
2024-03-07T07:29:40.414Z,26.19
2024-03-07T07:30:41.890Z,26.19
2024-03-07T07:31:40.449Z,26.19
2024-03-07T07:32:40.482Z,26.20
2024-03-07T07:33:40.536Z,26.21
2024-03-07T07:34:40.461Z,26.19
2024-03-07T07:35:40.745Z,26.20
2024-03-07T07:36:40.494Z,26.18
2024-03-07T07:37:40.473Z,26.19
2024-03-07T07:38:40.496Z,26.18
2024-03-07T07:39:40.467Z,26.15
2024-03-07T07:40:40.500Z,26.12
2024-03-07T07:41:40.510Z,26.09
2024-03-07T07:42:40.480Z,26.11
2024-03-07T07:44:40.512Z,26.16
2024-03-07T07:45:40.494Z,26.18
2024-03-07T07:46:40.499Z,26.20
2024-03-07T07:47:40.554Z,26.22
2024-03-07T07:48:40.609Z,26.23
2024-03-07T07:49:40.502Z,26.23
2024-03-07T07:50:40.767Z,26.26
2024-03-07T07:51:40.493Z,26.25
2024-03-07T07:52:40.508Z,26.26
2024-03-07T07:53:40.525Z,26.28
2024-03-07T07:54:40.508Z,26.29
2024-03-07T07:55:40.507Z,26.30
2024-03-07T07:56:40.535Z,26.30
2024-03-07T07:57:40.485Z,26.31
2024-03-07T07:58:40.526Z,26.32
2024-03-07T07:59:40.581Z,26.33
2024-03-07T08:00:40.532Z,26.33
2024-03-07T08:01:40.519Z,26.33
2024-03-07T08:02:40.567Z,26.34
2024-03-07T08:03:40.528Z,26.34
2024-03-07T08:04:40.514Z,26.35
2024-03-07T08:05:40.592Z,26.36
2024-03-07T08:06:40.512Z,26.37
2024-03-07T08:07:40.548Z,26.37
2024-03-07T08:08:40.584Z,26.38
2024-03-07T08:09:40.525Z,26.39
2024-03-07T08:10:42.347Z,26.38
2024-03-07T08:11:40.638Z,26.39
2024-03-07T08:12:40.566Z,26.39
2024-03-07T08:13:40.560Z,26.39
2024-03-07T08:14:40.606Z,26.39
2024-03-07T08:15:40.588Z,26.39
2024-03-07T08:16:40.601Z,26.39
2024-03-07T08:17:40.675Z,26.40
2024-03-07T08:18:40.657Z,26.40
2024-03-07T08:19:40.569Z,26.40
2024-03-07T08:20:41.727Z,26.40
2024-03-07T08:21:40.625Z,26.39
2024-03-07T08:22:40.631Z,26.40
2024-03-07T08:23:40.628Z,26.40
2024-03-07T08:24:40.609Z,26.41
2024-03-07T08:25:40.998Z,26.42
2024-03-07T08:26:40.650Z,26.42
2024-03-07T08:27:40.624Z,26.43
2024-03-07T08:28:40.597Z,26.43
2024-03-07T08:29:40.694Z,26.42
2024-03-07T08:30:40.644Z,26.42
2024-03-07T08:31:40.762Z,26.41
2024-03-07T08:32:40.672Z,26.42
2024-03-07T08:33:40.735Z,26.42
2024-03-07T08:34:41.244Z,26.40
2024-03-07T08:35:40.756Z,26.35
2024-03-07T08:36:41.255Z,26.31
2024-03-07T08:37:40.804Z,26.24
2024-03-07T08:38:40.873Z,26.17
2024-03-07T08:39:40.970Z,26.08
2024-03-07T08:40:41.083Z,26.02
2024-03-07T08:41:41.294Z,25.98
2024-03-07T08:42:41.257Z,25.96
2024-03-07T08:43:41.320Z,25.95
2024-03-07T08:44:41.473Z,25.92
2024-03-07T08:45:41.469Z,25.87
2024-03-07T08:46:41.583Z,25.83
2024-03-07T08:47:41.800Z,25.80
2024-03-07T08:48:41.907Z,25.80
2024-03-07T08:49:41.948Z,25.79
2024-03-07T08:50:42.031Z,25.80
2024-03-07T08:51:42.739Z,25.81
2024-03-07T08:52:42.152Z,25.82
2024-03-07T08:53:42.275Z,25.84
2024-03-07T08:54:42.344Z,25.87
2024-03-07T08:55:42.431Z,25.91
2024-03-07T08:56:42.599Z,25.94
2024-03-07T08:57:42.641Z,25.97
2024-03-07T08:58:42.729Z,26.00
2024-03-07T08:59:42.845Z,26.02
2024-03-07T09:00:42.942Z,26.06
2024-03-07T09:01:43.086Z,26.12
2024-03-07T09:02:43.194Z,26.16
2024-03-07T09:03:43.194Z,26.17
2024-03-07T09:04:43.307Z,26.20
2024-03-07T09:05:43.703Z,26.26
2024-03-07T09:06:43.496Z,26.31
2024-03-07T09:07:43.577Z,26.32
2024-03-07T09:08:43.710Z,26.35
2024-03-07T09:09:43.788Z,26.38
2024-03-07T09:10:44.119Z,26.38
2024-03-07T09:11:44.016Z,26.35
2024-03-07T09:12:44.047Z,26.33
2024-03-07T09:13:44.114Z,26.32
2024-03-07T09:14:47.176Z,26.31
2024-03-07T09:15:44.229Z,26.31
2024-03-07T09:16:44.215Z,26.31
2024-03-07T09:17:44.269Z,26.31
2024-03-07T09:18:44.304Z,26.32
2024-03-07T09:19:44.225Z,26.35
2024-03-07T09:20:44.263Z,26.38
2024-03-07T09:21:44.219Z,26.41
2024-03-07T09:22:44.238Z,26.46
2024-03-07T09:23:44.288Z,26.49
2024-03-07T09:24:44.275Z,26.53
2024-03-07T09:25:44.274Z,26.54
2024-03-07T09:26:44.396Z,26.58
2024-03-07T09:27:44.261Z,26.61
2024-03-07T09:28:44.221Z,26.64
2024-03-07T09:29:44.289Z,26.67
2024-03-07T09:30:44.279Z,26.69
2024-03-07T09:31:44.765Z,26.72
2024-03-07T09:32:44.766Z,26.75
2024-03-07T09:33:44.343Z,26.77
2024-03-07T09:34:44.368Z,26.78
2024-03-07T09:35:44.317Z,26.79
2024-03-07T09:36:44.826Z,26.80
2024-03-07T09:37:44.794Z,26.82
2024-03-07T09:38:44.342Z,26.83
2024-03-07T09:39:44.348Z,26.81
2024-03-07T09:40:44.332Z,26.79
2024-03-07T09:41:44.812Z,26.77
2024-03-07T09:42:44.306Z,26.75
2024-03-07T09:43:44.270Z,26.72
2024-03-07T09:44:44.322Z,26.71
2024-03-07T09:45:46.697Z,26.66
2024-03-07T09:46:44.760Z,26.64
2024-03-07T09:47:44.380Z,26.61
2024-03-07T09:48:44.353Z,26.58
2024-03-07T09:49:44.281Z,26.55
2024-03-07T09:50:44.365Z,26.45
2024-03-07T09:51:44.806Z,26.34
2024-03-07T09:52:44.298Z,26.29
2024-03-07T09:53:44.307Z,26.27
2024-03-07T09:54:44.329Z,26.27
2024-03-07T09:55:44.331Z,26.28
2024-03-07T09:56:44.840Z,26.28
2024-03-07T09:57:44.346Z,26.29
2024-03-07T09:58:44.342Z,26.30
2024-03-07T09:59:44.371Z,26.30
2024-03-07T10:00:44.302Z,26.28
2024-03-07T10:01:44.753Z,26.25
2024-03-07T10:02:45.330Z,26.19
2024-03-07T10:03:44.398Z,26.16
2024-03-07T10:04:44.301Z,26.16
2024-03-07T10:05:44.422Z,26.16
2024-03-07T10:06:44.802Z,26.16
2024-03-07T10:07:44.558Z,26.17
2024-03-07T10:08:44.705Z,26.17
2024-03-07T10:09:44.772Z,26.20
2024-03-07T10:10:44.931Z,26.22
2024-03-07T10:11:47.190Z,26.27
2024-03-07T10:12:44.995Z,26.30
2024-03-07T10:13:45.052Z,26.34
2024-03-07T10:14:45.112Z,26.40
2024-03-07T10:15:45.129Z,26.43
2024-03-07T10:16:45.303Z,26.47
2024-03-07T10:17:47.202Z,26.51
2024-03-07T10:18:45.516Z,26.55
2024-03-07T10:19:45.429Z,26.57
2024-03-07T10:20:45.595Z,26.59
2024-03-07T10:21:45.541Z,26.60
2024-03-07T10:22:45.581Z,26.62
2024-03-07T10:23:45.682Z,26.62
2024-03-07T10:24:45.686Z,26.63
2024-03-07T10:25:45.686Z,26.62
2024-03-07T10:26:45.869Z,26.62
2024-03-07T10:27:45.791Z,26.62
2024-03-07T10:28:45.822Z,26.64
2024-03-07T10:29:45.893Z,26.67
2024-03-07T10:30:45.972Z,26.70
2024-03-07T10:31:53.533Z,26.73
2024-03-07T10:32:47.081Z,26.76
2024-03-07T10:33:46.148Z,26.77
2024-03-07T10:34:46.038Z,26.78
2024-03-07T10:35:46.067Z,26.80
2024-03-07T10:36:46.080Z,26.83
2024-03-07T10:37:46.037Z,26.84
2024-03-07T10:38:46.075Z,26.83
2024-03-07T10:39:46.038Z,26.83
2024-03-07T10:40:46.073Z,26.83
2024-03-07T10:41:46.370Z,26.83
2024-03-07T10:42:46.029Z,26.77
2024-03-07T10:43:46.082Z,26.72
2024-03-07T10:44:46.134Z,26.68
2024-03-07T10:45:46.061Z,26.66
2024-03-07T10:46:46.353Z,26.68
2024-03-07T10:47:46.169Z,26.71
2024-03-07T10:48:46.159Z,26.73
2024-03-07T10:49:46.149Z,26.73
2024-03-07T10:50:46.260Z,26.74
2024-03-07T10:51:46.221Z,26.71
2024-03-07T10:52:46.260Z,26.66
2024-03-07T10:53:46.337Z,26.64
2024-03-07T10:54:49.052Z,26.64
2024-03-07T10:55:46.367Z,26.62
2024-03-07T10:56:46.388Z,26.60
2024-03-07T10:57:47.321Z,26.59
2024-03-07T10:58:46.339Z,26.58
2024-03-07T10:59:46.493Z,26.55
2024-03-07T11:00:46.408Z,26.55
2024-03-07T11:01:46.829Z,26.53
2024-03-07T11:02:46.376Z,26.52
2024-03-07T11:03:46.374Z,26.54
2024-03-07T11:04:46.390Z,26.54
2024-03-07T11:05:46.384Z,26.56
2024-03-07T11:06:46.400Z,26.59
2024-03-07T11:07:46.400Z,26.62
2024-03-07T11:08:46.460Z,26.59
2024-03-07T11:09:46.413Z,26.56
2024-03-07T11:10:46.441Z,26.55
2024-03-07T11:11:46.908Z,26.52
2024-03-07T11:12:46.395Z,26.52
2024-03-07T11:13:46.441Z,26.53
2024-03-07T11:14:46.421Z,26.54
2024-03-07T11:15:46.423Z,26.54
2024-03-07T11:16:46.829Z,26.56
2024-03-07T11:17:46.431Z,26.58
2024-03-07T11:18:46.408Z,26.59
2024-03-07T11:19:46.447Z,26.60
2024-03-07T11:20:46.474Z,26.60
2024-03-07T11:21:46.454Z,26.61
2024-03-07T11:22:46.537Z,26.62
2024-03-07T11:23:46.471Z,26.62
2024-03-07T11:24:46.726Z,26.64
2024-03-07T11:25:46.547Z,26.64
2024-03-07T11:26:46.759Z,26.64
2024-03-07T11:27:46.707Z,26.65
2024-03-07T11:28:46.759Z,26.65
2024-03-07T11:29:46.838Z,26.65
2024-03-07T11:30:46.887Z,26.65
2024-03-07T11:31:47.363Z,26.66
2024-03-07T11:32:48.129Z,26.66
2024-03-07T11:33:47.287Z,26.66
2024-03-07T11:34:47.186Z,26.66
2024-03-07T11:35:47.261Z,26.64
2024-03-07T11:36:47.333Z,26.60
2024-03-07T11:37:47.826Z,26.57
2024-03-07T11:38:47.488Z,26.51
2024-03-07T11:39:47.573Z,26.50
2024-03-07T11:40:47.631Z,26.51
2024-03-07T11:41:47.859Z,26.51
2024-03-07T11:42:47.766Z,26.51
2024-03-07T11:43:47.935Z,26.54
2024-03-07T11:44:47.959Z,26.56
2024-03-07T11:45:48.610Z,26.58
2024-03-07T11:46:48.359Z,26.58
2024-03-07T11:47:48.236Z,26.59
2024-03-07T11:48:48.267Z,26.61
2024-03-07T11:49:48.337Z,26.63
2024-03-07T11:50:48.462Z,26.64
2024-03-07T11:51:48.843Z,26.65
2024-03-07T11:52:48.503Z,26.66
2024-03-07T11:53:48.611Z,26.67
2024-03-07T11:54:48.639Z,26.68
2024-03-07T11:55:48.690Z,26.68
2024-03-07T11:56:48.924Z,26.69
2024-03-07T11:57:48.877Z,26.70
2024-03-07T11:58:48.956Z,26.71
2024-03-07T11:59:49.015Z,26.72
2024-03-07T12:00:49.108Z,26.72
2024-03-07T12:01:49.452Z,26.74
2024-03-07T12:02:49.246Z,26.75
2024-03-07T12:03:49.308Z,26.76
2024-03-07T12:04:49.398Z,26.76
2024-03-07T12:05:49.446Z,26.77
2024-03-07T12:06:49.488Z,26.78
2024-03-07T12:07:49.839Z,26.78
2024-03-07T12:08:49.672Z,26.78
2024-03-07T12:09:49.694Z,26.79
2024-03-07T12:10:50.053Z,26.79
2024-03-07T12:11:49.892Z,26.80
2024-03-07T12:12:49.927Z,26.80
2024-03-07T12:13:49.993Z,26.81
2024-03-07T12:14:50.059Z,26.82
2024-03-07T12:15:50.094Z,26.80
2024-03-07T12:16:50.153Z,26.81
2024-03-07T12:17:50.530Z,26.83
2024-03-07T12:18:50.410Z,26.83
2024-03-07T12:19:50.329Z,26.83
2024-03-07T12:20:50.476Z,26.83
2024-03-07T12:21:50.551Z,26.83
2024-03-07T12:22:50.876Z,26.84
2024-03-07T12:23:50.689Z,26.84
2024-03-07T12:24:50.753Z,26.83
2024-03-07T12:25:50.837Z,26.78
2024-03-07T12:26:50.939Z,26.80
2024-03-07T12:27:51.365Z,26.82
2024-03-07T12:28:51.060Z,26.84
2024-03-07T12:29:51.188Z,26.86
2024-03-07T12:30:51.436Z,26.87
2024-03-07T12:31:51.296Z,26.89
2024-03-07T12:32:51.491Z,26.91
2024-03-07T12:33:51.462Z,26.92
2024-03-07T12:34:51.469Z,26.92
2024-03-07T12:35:51.595Z,26.93
2024-03-07T12:36:51.584Z,26.93
2024-03-07T12:37:51.653Z,26.91
2024-03-07T12:38:51.767Z,26.92
2024-03-07T12:39:51.792Z,26.93
2024-03-07T12:40:51.891Z,26.93
2024-03-07T12:41:52.053Z,26.94
2024-03-07T12:42:52.032Z,26.95
2024-03-07T12:43:52.073Z,26.96
2024-03-07T12:44:52.249Z,26.97
2024-03-07T12:45:52.214Z,26.97
2024-03-07T12:46:52.320Z,26.98
2024-03-07T12:47:52.446Z,26.99
2024-03-07T12:48:52.591Z,26.99
2024-03-07T12:49:52.488Z,26.98
2024-03-07T12:50:52.569Z,26.97
2024-03-07T12:51:52.647Z,26.96
2024-03-07T12:52:52.733Z,26.95
2024-03-07T12:53:52.842Z,26.94
2024-03-07T12:54:52.952Z,26.93
2024-03-07T12:55:52.932Z,26.93